BRX7482 ESUT-ENVA
Flight info
| Callsign | BRX7482 |
|---|---|
| Flight time | 0h 45m |
| Altitude | 32000 |
| Route | GUBAV DCT XIBMA DCT NIGEX DCT NUPGO |
| Aircraft | E145/M-SABDFGRW/S |
Departure
| Time | 2026-04-11 03:51 |
|---|---|
| Airport | Hemavan Airport (ESUT) |
Arrival
| Time | 2026-04-11 04:36 |
|---|---|
| Airport | Trondheim Airport, Værnes (ENVA) |
| Time | Latitude | Longitude | Altitude | Speed | Heading |
|---|---|---|---|---|---|
| 2026-04-11 03:27 | 65.81198 | 15.07962 | 1505 ft | 0 kts | 62° |
| 2026-04-11 03:27 | 65.81198 | 15.07961 | 1505 ft | 0 kts | 62° |
| 2026-04-11 03:30 | 65.81198 | 15.07960 | 1505 ft | 0 kts | 62° |
| 2026-04-11 03:33 | 65.81198 | 15.07959 | 1505 ft | 0 kts | 62° |
| 2026-04-11 03:36 | 65.81198 | 15.07958 | 1505 ft | 0 kts | 62° |
| 2026-04-11 03:39 | 65.81198 | 15.07957 | 1505 ft | 0 kts | 62° |
| 2026-04-11 03:40 | 65.81197 | 15.07955 | 1505 ft | 0 kts | 62° |
| 2026-04-11 03:40 | 65.81197 | 15.07954 | 1505 ft | 0 kts | 62° |
| 2026-04-11 03:44 | 65.81198 | 15.07959 | 1505 ft | 1 kts | 62° |
| 2026-04-11 03:44 | 65.81203 | 15.07991 | 1506 ft | 2 kts | 90° |
| 2026-04-11 03:44 | 65.81191 | 15.07990 | 1506 ft | 3 kts | 244° |
| 2026-04-11 03:45 | 65.81181 | 15.07888 | 1503 ft | 0 kts | 243° |
| 2026-04-11 03:46 | 65.81177 | 15.07866 | 1503 ft | 2 kts | 243° |
| 2026-04-11 03:46 | 65.81163 | 15.07802 | 1503 ft | 5 kts | 243° |
| 2026-04-11 03:46 | 65.81142 | 15.07701 | 1503 ft | 7 kts | 242° |
| 2026-04-11 03:46 | 65.81100 | 15.07656 | 1503 ft | 8 kts | 158° |
| 2026-04-11 03:47 | 65.81029 | 15.07743 | 1503 ft | 14 kts | 153° |
| 2026-04-11 03:47 | 65.80926 | 15.07873 | 1505 ft | 18 kts | 153° |
| 2026-04-11 03:47 | 65.80796 | 15.08034 | 1506 ft | 23 kts | 153° |
| 2026-04-11 03:47 | 65.80640 | 15.08234 | 1506 ft | 25 kts | 152° |
| 2026-04-11 03:48 | 65.80481 | 15.08433 | 1506 ft | 25 kts | 152° |
| 2026-04-11 03:48 | 65.80327 | 15.08629 | 1503 ft | 25 kts | 153° |
| 2026-04-11 03:48 | 65.80190 | 15.08803 | 1503 ft | 22 kts | 152° |
| 2026-04-11 03:48 | 65.80045 | 15.08985 | 1500 ft | 24 kts | 153° |
| 2026-04-11 03:49 | 65.79927 | 15.09136 | 1498 ft | 16 kts | 152° |
| 2026-04-11 03:49 | 65.79867 | 15.09259 | 1496 ft | 9 kts | 140° |
| 2026-04-11 03:49 | 65.79865 | 15.09213 | 1496 ft | 7 kts | 333° |
| 2026-04-11 03:49 | 65.79911 | 15.09154 | 1497 ft | 8 kts | 333° |
| 2026-04-11 03:50 | 65.79963 | 15.09089 | 1498 ft | 8 kts | 332° |
| 2026-04-11 03:50 | 65.79977 | 15.09071 | 1499 ft | 0 kts | 332° |
| 2026-04-11 03:50 | 65.79986 | 15.09060 | 1499 ft | 15 kts | 332° |
| 2026-04-11 03:50 | 65.80308 | 15.08655 | 1503 ft | 91 kts | 333° |
| 2026-04-11 03:51 | 65.81055 | 15.07711 | 1582 ft | 139 kts | 332° |
| 2026-04-11 03:51 | 65.81908 | 15.06547 | 2163 ft | 146 kts | 329° |
| 2026-04-11 03:51 | 65.82771 | 15.05024 | 2663 ft | 165 kts | 306° |
| 2026-04-11 03:51 | 65.82891 | 15.02237 | 3059 ft | 186 kts | 250° |
| 2026-04-11 03:52 | 65.82360 | 14.99001 | 3181 ft | 227 kts | 237° |
| 2026-04-11 03:52 | 65.81447 | 14.95546 | 3641 ft | 248 kts | 235° |
| 2026-04-11 03:52 | 65.80532 | 14.92085 | 4636 ft | 246 kts | 235° |
| 2026-04-11 03:52 | 65.79793 | 14.88417 | 5582 ft | 247 kts | 252° |
| 2026-04-11 03:53 | 65.79524 | 14.84266 | 6477 ft | 250 kts | 261° |
| 2026-04-11 03:53 | 65.79387 | 14.80062 | 7314 ft | 254 kts | 263° |
| 2026-04-11 03:53 | 65.79283 | 14.75762 | 8090 ft | 259 kts | 263° |
| 2026-04-11 03:53 | 65.79185 | 14.71356 | 8846 ft | 263 kts | 263° |
| 2026-04-11 03:54 | 65.79089 | 14.66946 | 9573 ft | 267 kts | 263° |
| 2026-04-11 03:54 | 65.78989 | 14.62426 | 10297 ft | 272 kts | 263° |
| 2026-04-11 03:54 | 65.78877 | 14.57516 | 10283 ft | 302 kts | 263° |
| 2026-04-11 03:54 | 65.78760 | 14.52256 | 10480 ft | 319 kts | 263° |
| 2026-04-11 03:55 | 65.78637 | 14.46870 | 11123 ft | 322 kts | 263° |
| 2026-04-11 03:55 | 65.78510 | 14.41439 | 11754 ft | 324 kts | 263° |
| 2026-04-11 03:55 | 65.78381 | 14.35972 | 12371 ft | 327 kts | 263° |
| 2026-04-11 03:55 | 65.78246 | 14.30396 | 12955 ft | 332 kts | 262° |
| 2026-04-11 03:56 | 65.78110 | 14.24809 | 13535 ft | 335 kts | 262° |
| 2026-04-11 03:56 | 65.77971 | 14.19184 | 14176 ft | 337 kts | 262° |
| 2026-04-11 03:56 | 65.77826 | 14.13434 | 14846 ft | 340 kts | 261° |
| 2026-04-11 03:56 | 65.77678 | 14.07672 | 15477 ft | 344 kts | 262° |
| 2026-04-11 03:57 | 65.77521 | 14.01861 | 16026 ft | 348 kts | 259° |
| 2026-04-11 03:57 | 65.76823 | 13.96293 | 16558 ft | 339 kts | 235° |
| 2026-04-11 03:57 | 65.75330 | 13.91986 | 17094 ft | 330 kts | 214° |
| 2026-04-11 03:57 | 65.73418 | 13.88998 | 17625 ft | 329 kts | 207° |
| 2026-04-11 03:58 | 65.71429 | 13.86118 | 18180 ft | 330 kts | 207° |
| 2026-04-11 03:58 | 65.69469 | 13.83318 | 18637 ft | 334 kts | 207° |
| 2026-04-11 03:58 | 65.67457 | 13.80464 | 19141 ft | 336 kts | 207° |
| 2026-04-11 03:58 | 65.65427 | 13.77595 | 19652 ft | 338 kts | 207° |
| 2026-04-11 03:59 | 65.63411 | 13.74751 | 20140 ft | 340 kts | 207° |
| 2026-04-11 03:59 | 65.61343 | 13.71843 | 20649 ft | 342 kts | 206° |
| 2026-04-11 03:59 | 65.59293 | 13.68964 | 21078 ft | 345 kts | 206° |
| 2026-04-11 03:59 | 65.57225 | 13.66066 | 21554 ft | 347 kts | 206° |
| 2026-04-11 04:00 | 65.55115 | 13.63115 | 22075 ft | 348 kts | 206° |
| 2026-04-11 04:00 | 65.53026 | 13.60198 | 22509 ft | 350 kts | 206° |
| 2026-04-11 04:00 | 65.50916 | 13.57258 | 22894 ft | 353 kts | 206° |
| 2026-04-11 04:00 | 65.48801 | 13.54317 | 23341 ft | 355 kts | 206° |
| 2026-04-11 04:01 | 65.46652 | 13.51333 | 23767 ft | 356 kts | 206° |
| 2026-04-11 04:01 | 65.44513 | 13.48369 | 24210 ft | 358 kts | 206° |
| 2026-04-11 04:01 | 65.42347 | 13.45374 | 24522 ft | 362 kts | 206° |
| 2026-04-11 04:01 | 65.40156 | 13.42350 | 24951 ft | 363 kts | 206° |
| 2026-04-11 04:02 | 65.37978 | 13.39349 | 25341 ft | 365 kts | 206° |
| 2026-04-11 04:02 | 65.35764 | 13.36304 | 25816 ft | 365 kts | 206° |
| 2026-04-11 04:02 | 65.33575 | 13.33303 | 26126 ft | 369 kts | 205° |
| 2026-04-11 04:02 | 65.31303 | 13.30168 | 26141 ft | 379 kts | 206° |
| 2026-04-11 04:03 | 65.29063 | 13.26857 | 26149 ft | 386 kts | 207° |
| 2026-04-11 04:03 | 65.26734 | 13.23436 | 26153 ft | 392 kts | 207° |
| 2026-04-11 04:03 | 65.24429 | 13.20060 | 26138 ft | 398 kts | 207° |
| 2026-04-11 04:03 | 65.22034 | 13.16561 | 26131 ft | 404 kts | 207° |
| 2026-04-11 04:04 | 65.19611 | 13.13030 | 26110 ft | 409 kts | 207° |
| 2026-04-11 04:04 | 65.17191 | 13.09512 | 26133 ft | 411 kts | 207° |
| 2026-04-11 04:04 | 65.14740 | 13.05955 | 26121 ft | 411 kts | 207° |
| 2026-04-11 04:04 | 65.12317 | 13.02448 | 26112 ft | 411 kts | 207° |
| 2026-04-11 04:05 | 65.09873 | 12.98918 | 26106 ft | 410 kts | 207° |
| 2026-04-11 04:05 | 65.07445 | 12.95420 | 26106 ft | 410 kts | 207° |
| 2026-04-11 04:05 | 65.05029 | 12.91943 | 26101 ft | 409 kts | 207° |
| 2026-04-11 04:05 | 65.02595 | 12.88452 | 26099 ft | 408 kts | 207° |
| 2026-04-11 04:06 | 65.00186 | 12.85003 | 26094 ft | 408 kts | 207° |
| 2026-04-11 04:06 | 64.97748 | 12.81517 | 26095 ft | 407 kts | 207° |
| 2026-04-11 04:06 | 64.95340 | 12.78086 | 26097 ft | 406 kts | 207° |
| 2026-04-11 04:06 | 64.92903 | 12.74619 | 26101 ft | 406 kts | 207° |
| 2026-04-11 04:07 | 64.90507 | 12.71216 | 26100 ft | 406 kts | 207° |
| 2026-04-11 04:07 | 64.88091 | 12.67794 | 26121 ft | 405 kts | 207° |
| 2026-04-11 04:07 | 64.85689 | 12.64398 | 26114 ft | 405 kts | 207° |
| 2026-04-11 04:07 | 64.83280 | 12.61000 | 26109 ft | 406 kts | 207° |
| 2026-04-11 04:08 | 64.80865 | 12.57600 | 26106 ft | 406 kts | 206° |
| 2026-04-11 04:08 | 64.78439 | 12.54195 | 26094 ft | 406 kts | 207° |
| 2026-04-11 04:08 | 64.76026 | 12.50834 | 26084 ft | 407 kts | 207° |
| 2026-04-11 04:08 | 64.73587 | 12.47405 | 26077 ft | 407 kts | 207° |
| 2026-04-11 04:09 | 64.71178 | 12.44039 | 26080 ft | 406 kts | 207° |
| 2026-04-11 04:09 | 64.68751 | 12.40654 | 26090 ft | 406 kts | 207° |
| 2026-04-11 04:09 | 64.66348 | 12.37316 | 26097 ft | 406 kts | 207° |
| 2026-04-11 04:09 | 64.63911 | 12.33935 | 26100 ft | 406 kts | 206° |
| 2026-04-11 04:10 | 64.61477 | 12.30565 | 26101 ft | 406 kts | 206° |
| 2026-04-11 04:10 | 64.59069 | 12.27238 | 26109 ft | 406 kts | 206° |
| 2026-04-11 04:10 | 64.56632 | 12.23879 | 26112 ft | 405 kts | 206° |
| 2026-04-11 04:10 | 64.54202 | 12.20538 | 26107 ft | 405 kts | 206° |
| 2026-04-11 04:11 | 64.51803 | 12.17244 | 26111 ft | 405 kts | 206° |
| 2026-04-11 04:11 | 64.49371 | 12.13913 | 26118 ft | 405 kts | 206° |
| 2026-04-11 04:11 | 64.46938 | 12.10587 | 26119 ft | 405 kts | 206° |
| 2026-04-11 04:11 | 64.44537 | 12.07312 | 26121 ft | 404 kts | 206° |
| 2026-04-11 04:12 | 64.42104 | 12.04001 | 26132 ft | 404 kts | 206° |
| 2026-04-11 04:12 | 64.39705 | 12.00740 | 26117 ft | 404 kts | 206° |
| 2026-04-11 04:12 | 64.37225 | 11.97580 | 26122 ft | 402 kts | 203° |
| 2026-04-11 04:12 | 64.34778 | 11.94599 | 26135 ft | 402 kts | 204° |
| 2026-04-11 04:13 | 64.32304 | 11.91570 | 26127 ft | 394 kts | 204° |
| 2026-04-11 04:13 | 64.29954 | 11.88692 | 26050 ft | 372 kts | 203° |
| 2026-04-11 04:13 | 64.27702 | 11.85946 | 25512 ft | 364 kts | 203° |
| 2026-04-11 04:13 | 64.25503 | 11.83268 | 24853 ft | 360 kts | 203° |
| 2026-04-11 04:14 | 64.23303 | 11.80593 | 24075 ft | 359 kts | 204° |
| 2026-04-11 04:14 | 64.21099 | 11.77916 | 23489 ft | 353 kts | 204° |
| 2026-04-11 04:14 | 64.18969 | 11.75334 | 22873 ft | 350 kts | 204° |
| 2026-04-11 04:14 | 64.16808 | 11.72719 | 22287 ft | 349 kts | 203° |
| 2026-04-11 04:15 | 64.12608 | 11.67562 | 21299 ft | 344 kts | 207° |
| 2026-04-11 04:15 | 64.10618 | 11.64580 | 20700 ft | 345 kts | 208° |
| 2026-04-11 04:15 | 64.08607 | 11.61593 | 20166 ft | 343 kts | 208° |
| 2026-04-11 04:16 | 64.06635 | 11.58675 | 19702 ft | 340 kts | 208° |
| 2026-04-11 04:16 | 64.04655 | 11.55754 | 19235 ft | 336 kts | 208° |
| 2026-04-11 04:16 | 64.02713 | 11.52896 | 18736 ft | 335 kts | 208° |
| 2026-04-11 04:16 | 64.00771 | 11.50044 | 18271 ft | 332 kts | 208° |
| 2026-04-11 04:17 | 63.98842 | 11.47215 | 17803 ft | 329 kts | 208° |
| 2026-04-11 04:17 | 63.96919 | 11.44401 | 17341 ft | 327 kts | 208° |
| 2026-04-11 04:17 | 63.95038 | 11.41652 | 16857 ft | 325 kts | 208° |
| 2026-04-11 04:17 | 63.93148 | 11.38894 | 16371 ft | 323 kts | 209° |
| 2026-04-11 04:18 | 63.91258 | 11.36142 | 15871 ft | 322 kts | 209° |
| 2026-04-11 04:18 | 63.89386 | 11.33417 | 15464 ft | 318 kts | 208° |
| 2026-04-11 04:18 | 63.87561 | 11.30767 | 14991 ft | 317 kts | 208° |
| 2026-04-11 04:18 | 63.85720 | 11.28098 | 14504 ft | 316 kts | 208° |
| 2026-04-11 04:19 | 63.83872 | 11.25423 | 14077 ft | 314 kts | 208° |
| 2026-04-11 04:19 | 63.82055 | 11.22797 | 13695 ft | 310 kts | 208° |
| 2026-04-11 04:19 | 63.80245 | 11.20186 | 13250 ft | 308 kts | 208° |
| 2026-04-11 04:19 | 63.78450 | 11.17601 | 12804 ft | 307 kts | 208° |
| 2026-04-11 04:20 | 63.76672 | 11.14926 | 12296 ft | 309 kts | 215° |
| 2026-04-11 04:20 | 63.75365 | 11.11101 | 11855 ft | 318 kts | 239° |
| 2026-04-11 04:20 | 63.74701 | 11.06297 | 11515 ft | 322 kts | 248° |
| 2026-04-11 04:20 | 63.74056 | 11.01549 | 11252 ft | 317 kts | 247° |
| 2026-04-11 04:21 | 63.73416 | 10.96909 | 11174 ft | 299 kts | 246° |
| 2026-04-11 04:21 | 63.72819 | 10.92614 | 11150 ft | 278 kts | 246° |
| 2026-04-11 04:21 | 63.72254 | 10.88571 | 10924 ft | 267 kts | 246° |
| 2026-04-11 04:21 | 63.71717 | 10.84721 | 10965 ft | 243 kts | 246° |
| 2026-04-11 04:22 | 63.71218 | 10.81168 | 10470 ft | 240 kts | 245° |
| 2026-04-11 04:22 | 63.70710 | 10.77570 | 9846 ft | 242 kts | 246° |
| 2026-04-11 04:22 | 63.70210 | 10.74016 | 9321 ft | 238 kts | 246° |
| 2026-04-11 04:22 | 63.69708 | 10.70459 | 8745 ft | 237 kts | 246° |
| 2026-04-11 04:23 | 63.69210 | 10.66936 | 8174 ft | 236 kts | 246° |
| 2026-04-11 04:23 | 63.68721 | 10.63481 | 7658 ft | 233 kts | 247° |
| 2026-04-11 04:23 | 63.68515 | 10.59814 | 7070 ft | 243 kts | 270° |
| 2026-04-11 04:23 | 63.68737 | 10.56107 | 6611 ft | 239 kts | 272° |
| 2026-04-11 04:24 | 63.68942 | 10.52407 | 6030 ft | 238 kts | 272° |
| 2026-04-11 04:24 | 63.69144 | 10.48711 | 5492 ft | 238 kts | 272° |
| 2026-04-11 04:24 | 63.69209 | 10.45035 | 5077 ft | 224 kts | 253° |
| 2026-04-11 04:24 | 63.68784 | 10.41807 | 5120 ft | 219 kts | 247° |
| 2026-04-11 04:25 | 63.68303 | 10.38429 | 5096 ft | 229 kts | 247° |
| 2026-04-11 04:25 | 63.67808 | 10.34993 | 5093 ft | 229 kts | 246° |
| 2026-04-11 04:25 | 63.67316 | 10.31615 | 5117 ft | 228 kts | 246° |
| 2026-04-11 04:25 | 63.66516 | 10.28660 | 5086 ft | 219 kts | 223° |
| 2026-04-11 04:26 | 63.65482 | 10.26192 | 5093 ft | 216 kts | 222° |
| 2026-04-11 04:26 | 63.64455 | 10.23730 | 5083 ft | 215 kts | 223° |
| 2026-04-11 04:26 | 63.63428 | 10.21273 | 5084 ft | 214 kts | 222° |
| 2026-04-11 04:26 | 63.62396 | 10.18847 | 5083 ft | 213 kts | 218° |
| 2026-04-11 04:27 | 63.61134 | 10.17331 | 5094 ft | 207 kts | 199° |
| 2026-04-11 04:27 | 63.59798 | 10.16136 | 5090 ft | 207 kts | 199° |
| 2026-04-11 04:27 | 63.58457 | 10.14936 | 5106 ft | 209 kts | 199° |
| 2026-04-11 04:27 | 63.57064 | 10.14103 | 4817 ft | 208 kts | 179° |
| 2026-04-11 04:28 | 63.55739 | 10.15151 | 4275 ft | 211 kts | 143° |
| 2026-04-11 04:28 | 63.55025 | 10.17926 | 4138 ft | 203 kts | 105° |
| 2026-04-11 04:28 | 63.54846 | 10.20963 | 4101 ft | 196 kts | 104° |
| 2026-04-11 04:28 | 63.54636 | 10.24024 | 4068 ft | 201 kts | 104° |
| 2026-04-11 04:29 | 63.54413 | 10.27187 | 3976 ft | 207 kts | 104° |
| 2026-04-11 04:29 | 63.54186 | 10.30369 | 3953 ft | 206 kts | 104° |
| 2026-04-11 04:29 | 63.53959 | 10.33513 | 3981 ft | 204 kts | 104° |
| 2026-04-11 04:29 | 63.53728 | 10.36697 | 3966 ft | 209 kts | 104° |
| 2026-04-11 04:30 | 63.53493 | 10.39947 | 3947 ft | 213 kts | 104° |
| 2026-04-11 04:30 | 63.53254 | 10.43215 | 3984 ft | 215 kts | 104° |
| 2026-04-11 04:30 | 63.52997 | 10.46562 | 3998 ft | 217 kts | 108° |
| 2026-04-11 04:30 | 63.52223 | 10.49338 | 3979 ft | 210 kts | 143° |
| 2026-04-11 04:31 | 63.50989 | 10.50654 | 3955 ft | 188 kts | 161° |
| 2026-04-11 04:31 | 63.49798 | 10.51633 | 3694 ft | 181 kts | 160° |
| 2026-04-11 04:31 | 63.48624 | 10.52585 | 3294 ft | 181 kts | 160° |
| 2026-04-11 04:31 | 63.47435 | 10.53544 | 3002 ft | 177 kts | 160° |
| 2026-04-11 04:32 | 63.46330 | 10.54702 | 2986 ft | 182 kts | 141° |
| 2026-04-11 04:32 | 63.45719 | 10.57231 | 2865 ft | 191 kts | 101° |
| 2026-04-11 04:32 | 63.45759 | 10.60139 | 2644 ft | 187 kts | 92° |
| 2026-04-11 04:32 | 63.45786 | 10.63065 | 2387 ft | 181 kts | 94° |
| 2026-04-11 04:33 | 63.45793 | 10.65764 | 2142 ft | 172 kts | 95° |
| 2026-04-11 04:33 | 63.45785 | 10.68266 | 1935 ft | 152 kts | 96° |
| 2026-04-11 04:33 | 63.45780 | 10.70607 | 1717 ft | 149 kts | 95° |
| 2026-04-11 04:33 | 63.45781 | 10.72891 | 1522 ft | 148 kts | 95° |
| 2026-04-11 04:34 | 63.45794 | 10.75188 | 1296 ft | 144 kts | 94° |
| 2026-04-11 04:34 | 63.45813 | 10.77280 | 1069 ft | 131 kts | 94° |
| 2026-04-11 04:34 | 63.45808 | 10.79262 | 879 ft | 126 kts | 95° |
| 2026-04-11 04:34 | 63.45798 | 10.81218 | 729 ft | 125 kts | 96° |
| 2026-04-11 04:35 | 63.45789 | 10.83115 | 562 ft | 121 kts | 95° |
| 2026-04-11 04:35 | 63.45784 | 10.85019 | 401 ft | 120 kts | 96° |
| 2026-04-11 04:35 | 63.45778 | 10.86892 | 235 ft | 121 kts | 95° |
| 2026-04-11 04:35 | 63.45772 | 10.88737 | 67 ft | 118 kts | 96° |
| 2026-04-11 04:36 | 63.45763 | 10.90490 | 5 ft | 102 kts | 92° |
| 2026-04-11 04:36 | 63.45761 | 10.91695 | 12 ft | 54 kts | 91° |
| 2026-04-11 04:36 | 63.45759 | 10.92261 | 16 ft | 24 kts | 90° |
| 2026-04-11 04:36 | 63.45719 | 10.92423 | 18 ft | 12 kts | 180° |
| 2026-04-11 04:37 | 63.45643 | 10.92422 | 16 ft | 11 kts | 180° |
| 2026-04-11 04:37 | 63.45595 | 10.92373 | 15 ft | 10 kts | 262° |
| 2026-04-11 04:37 | 63.45596 | 10.92212 | 14 ft | 8 kts | 269° |
| 2026-04-11 04:37 | 63.45596 | 10.92044 | 12 ft | 13 kts | 270° |
| 2026-04-11 04:38 | 63.45596 | 10.91815 | 12 ft | 16 kts | 270° |
| 2026-04-11 04:38 | 63.45597 | 10.91555 | 8 ft | 16 kts | 271° |
| 2026-04-11 04:38 | 63.45598 | 10.91345 | 8 ft | 18 kts | 270° |
| 2026-04-11 04:38 | 63.45588 | 10.91159 | 8 ft | 9 kts | 221° |
| 2026-04-11 04:39 | 63.45539 | 10.91145 | 8 ft | 6 kts | 180° |
| 2026-04-11 04:39 | 63.45487 | 10.91144 | 8 ft | 8 kts | 181° |
| 2026-04-11 04:39 | 63.45431 | 10.91145 | 8 ft | 5 kts | 169° |
| 2026-04-11 04:39 | 63.45419 | 10.91211 | 8 ft | 5 kts | 90° |
| 2026-04-11 04:40 | 63.45418 | 10.91269 | 8 ft | 0 kts | 90° |